Walworth, United Kingdom
Current Conditions -  °F | °C
As of 8:50 AM on Friday 24 Oct 2014 (Local Time) from EGLC Reporting Station
Few Clouds Few Clouds  
Wind Chill: 15°   Ceiling: Unl
Heat Index: 15°   Visibility: 6mi
Dew Point: 13°   Wind: 6mph
Humidity: 88%   Direction: 220°SW
Pressure: 29.97"   Gusts: NA
Location:  51.49°N, 0.09°W
Report Text: EGLC 240750Z 22005KT 9999 FEW030 15/13 Q1015
Loading
Personal Weather Stations






























Interactive Weather Map
Tropical Storm Tracking
New forecast layout! Learn more

10-Day Weather Forecast

Advertisements
Track Severe Weather on mobile